createdAt,value
2019-03-06T00:01:47.779Z,5.10
2019-03-06T00:04:16.609Z,5.10
2019-03-06T00:06:52.370Z,5.00
2019-03-06T00:09:21.046Z,5.00
2019-03-06T00:11:49.836Z,5.00
2019-03-06T00:14:25.440Z,5.00
2019-03-06T00:16:54.482Z,4.90
2019-03-06T00:19:30.131Z,4.90
2019-03-06T00:21:59.329Z,5.00
2019-03-06T00:24:28.127Z,4.90
2019-03-06T00:27:03.574Z,4.90
2019-03-06T00:29:32.354Z,4.90
2019-03-06T00:32:08.420Z,4.90
2019-03-06T00:34:37.305Z,4.90
2019-03-06T00:37:05.898Z,4.80
2019-03-06T00:39:43.484Z,4.80
2019-03-06T00:42:12.274Z,4.80
2019-03-06T00:44:47.516Z,4.80
2019-03-06T00:47:22.869Z,4.70
2019-03-06T00:50:05.882Z,4.70
2019-03-06T00:52:34.566Z,4.70
2019-03-06T00:55:03.870Z,4.70
2019-03-06T00:57:40.035Z,4.70
2019-03-06T01:00:17.558Z,4.60
2019-03-06T01:02:53.272Z,4.60
2019-03-06T01:05:21.968Z,4.60
2019-03-06T01:07:50.856Z,4.60
2019-03-06T01:10:26.505Z,4.60
2019-03-06T01:12:55.341Z,4.60
2019-03-06T01:15:24.182Z,4.60
2019-03-06T01:18:00.856Z,4.70
2019-03-06T01:20:29.639Z,4.70
2019-03-06T01:23:05.602Z,4.70
2019-03-06T01:25:34.193Z,4.70
2019-03-06T01:28:02.894Z,4.70
2019-03-06T01:30:38.438Z,4.70
2019-03-06T01:33:20.419Z,4.70
2019-03-06T01:36:03.647Z,4.70
2019-03-06T01:38:48.718Z,4.70
2019-03-06T01:41:26.415Z,4.60
2019-03-06T01:43:56.747Z,4.60
2019-03-06T01:46:31.980Z,4.60
2019-03-06T01:49:07.631Z,4.60
2019-03-06T01:51:50.145Z,4.60
2019-03-06T01:54:19.031Z,4.60
2019-03-06T01:56:48.131Z,4.60
2019-03-06T01:59:23.164Z,4.60
2019-03-06T02:01:51.748Z,4.60
2019-03-06T02:04:27.912Z,4.70
2019-03-06T02:06:56.800Z,4.70
2019-03-06T02:09:27.628Z,4.60
2019-03-06T02:12:03.698Z,4.70
2019-03-06T02:14:32.387Z,4.70
2019-03-06T02:17:08.038Z,4.70
2019-03-06T02:19:36.721Z,4.60
2019-03-06T02:22:05.439Z,4.60
2019-03-06T02:24:41.438Z,4.60
2019-03-06T02:27:10.052Z,4.60
2019-03-06T02:29:45.908Z,4.60
2019-03-06T02:32:14.902Z,4.60
2019-03-06T02:34:43.703Z,4.60
2019-03-06T02:37:18.724Z,4.50
2019-03-06T02:39:47.514Z,4.50
2019-03-06T02:42:22.963Z,4.50
2019-03-06T02:44:51.586Z,4.50
2019-03-06T02:47:33.750Z,4.50
2019-03-06T02:50:12.074Z,4.50
2019-03-06T02:52:53.855Z,4.50
2019-03-06T02:55:22.753Z,4.50
2019-03-06T02:57:53.071Z,4.50
2019-03-06T03:00:42.552Z,4.50
2019-03-06T03:03:37.343Z,4.50
2019-03-06T03:06:07.669Z,4.50
2019-03-06T03:08:43.013Z,4.50
2019-03-06T03:11:11.713Z,4.50
2019-03-06T03:13:40.585Z,4.50
2019-03-06T03:16:15.625Z,4.50
2019-03-06T03:18:44.332Z,4.50
2019-03-06T03:21:19.964Z,4.50
2019-03-06T03:23:48.550Z,4.50
2019-03-06T03:26:17.443Z,4.60
2019-03-06T03:28:52.677Z,4.60
2019-03-06T03:31:21.265Z,4.60
2019-03-06T03:33:57.031Z,4.60
2019-03-06T03:36:25.706Z,4.60
2019-03-06T03:38:54.391Z,4.50
2019-03-06T03:41:30.857Z,4.50
2019-03-06T03:43:59.456Z,4.50
2019-03-06T03:46:34.479Z,4.50
2019-03-06T03:49:10.130Z,4.40
2019-03-06T03:51:52.036Z,4.40
2019-03-06T03:54:27.671Z,4.50
2019-03-06T03:57:03.383Z,4.40
2019-03-06T03:59:32.215Z,4.40
2019-03-06T04:02:00.923Z,4.40
2019-03-06T04:04:36.862Z,4.40
2019-03-06T04:07:05.661Z,4.40
2019-03-06T04:09:40.888Z,4.40
2019-03-06T04:12:09.584Z,4.40
2019-03-06T04:14:38.259Z,4.40
2019-03-06T04:17:14.128Z,4.50
2019-03-06T04:19:42.699Z,4.50
2019-03-06T04:22:19.065Z,4.50
2019-03-06T04:24:47.635Z,4.60
2019-03-06T04:27:16.390Z,4.60
2019-03-06T04:29:51.791Z,4.50
2019-03-06T04:32:20.773Z,4.50
2019-03-06T04:34:56.735Z,4.60
2019-03-06T04:37:25.344Z,4.60
2019-03-06T04:39:54.047Z,4.60
2019-03-06T04:42:29.859Z,4.60
2019-03-06T04:44:58.544Z,4.60
2019-03-06T04:47:34.398Z,4.50
2019-03-06T04:50:09.949Z,4.50
2019-03-06T04:52:52.677Z,4.60
2019-03-06T04:55:28.019Z,4.60
2019-03-06T04:57:56.691Z,4.60
2019-03-06T05:00:32.551Z,4.60
2019-03-06T05:03:07.605Z,4.40
2019-03-06T05:05:36.150Z,4.40
2019-03-06T05:08:05.712Z,4.30
2019-03-06T05:10:41.013Z,4.30
2019-03-06T05:13:09.514Z,4.20
2019-03-06T05:15:45.042Z,4.00
2019-03-06T05:18:27.455Z,4.00
2019-03-06T05:21:02.898Z,4.10
2019-03-06T05:23:31.786Z,4.10
2019-03-06T05:26:00.471Z,4.10
2019-03-06T05:28:36.126Z,4.10
2019-03-06T05:31:04.673Z,4.10
2019-03-06T05:33:40.976Z,4.20
2019-03-06T05:36:18.466Z,4.20
2019-03-06T05:39:12.146Z,4.30
2019-03-06T05:41:40.824Z,4.30
2019-03-06T05:44:09.714Z,4.40
2019-03-06T05:46:44.762Z,4.40
2019-03-06T05:49:13.345Z,4.50
2019-03-06T05:51:55.689Z,4.50
2019-03-06T05:54:30.850Z,4.50
2019-03-06T05:57:12.615Z,4.50
2019-03-06T05:59:41.265Z,4.40
2019-03-06T06:02:09.968Z,4.40
2019-03-06T06:04:44.879Z,4.30
2019-03-06T06:07:13.783Z,4.30
2019-03-06T06:09:50.191Z,4.30
2019-03-06T06:12:18.763Z,4.20
2019-03-06T06:14:47.408Z,4.20
2019-03-06T06:17:22.657Z,4.20
2019-03-06T06:19:51.330Z,4.20
2019-03-06T06:22:28.128Z,4.20
2019-03-06T06:24:57.071Z,4.30
2019-03-06T06:27:26.000Z,4.40
2019-03-06T06:30:00.982Z,4.60
2019-03-06T06:32:29.617Z,4.70
2019-03-06T06:35:05.321Z,4.80
2019-03-06T06:37:34.055Z,4.90
2019-03-06T06:40:02.843Z,5.10
2019-03-06T06:42:39.018Z,5.20
2019-03-06T06:45:10.290Z,5.40
2019-03-06T06:48:05.434Z,5.60
2019-03-06T06:50:40.900Z,5.60
2019-03-06T06:53:45.033Z,5.70
2019-03-06T06:56:40.854Z,5.60
2019-03-06T06:59:31.867Z,5.70
2019-03-06T07:02:13.858Z,5.80
2019-03-06T07:04:56.558Z,5.80
2019-03-06T07:07:26.800Z,5.90
2019-03-06T07:10:20.729Z,5.90
2019-03-06T07:12:53.655Z,5.90
2019-03-06T07:15:45.179Z,6.00
2019-03-06T07:18:15.506Z,5.90
2019-03-06T07:21:09.177Z,5.80
2019-03-06T07:23:42.164Z,5.80
2019-03-06T07:26:33.996Z,5.80
2019-03-06T07:29:13.734Z,5.80
2019-03-06T07:31:59.945Z,5.80
2019-03-06T07:34:48.710Z,5.90
2019-03-06T07:37:31.834Z,6.10
2019-03-06T07:40:00.841Z,6.10
2019-03-06T07:42:33.553Z,6.10
2019-03-06T07:45:48.289Z,6.10
2019-03-06T07:48:18.590Z,6.30
2019-03-06T07:50:55.696Z,6.40
2019-03-06T07:53:54.258Z,6.50
2019-03-06T07:56:40.938Z,6.80
2019-03-06T07:59:16.626Z,7.20
2019-03-06T08:01:48.574Z,7.30
2019-03-06T08:04:17.370Z,7.30
2019-03-06T08:06:53.985Z,7.40
2019-03-06T08:09:29.393Z,7.70
2019-03-06T08:12:02.738Z,7.90
2019-03-06T08:14:48.986Z,8.40
2019-03-06T08:17:25.041Z,9.10
2019-03-06T08:20:18.713Z,10.00
2019-03-06T08:22:57.949Z,10.70
2019-03-06T08:25:52.126Z,11.90
2019-03-06T08:28:21.028Z,12.10
2019-03-06T08:31:13.832Z,12.60
2019-03-06T08:33:42.561Z,13.10
2019-03-06T08:36:11.154Z,14.00
2019-03-06T08:38:46.296Z,14.00
2019-03-06T08:41:15.075Z,14.30
2019-03-06T08:43:51.132Z,14.40
2019-03-06T08:46:21.464Z,14.60
2019-03-06T08:49:13.498Z,14.00
2019-03-06T08:51:52.574Z,13.80
2019-03-06T08:54:36.675Z,14.20
2019-03-06T08:57:16.416Z,14.70
2019-03-06T09:00:02.667Z,14.20
2019-03-06T09:02:35.714Z,13.80
2019-03-06T09:05:16.018Z,14.50
2019-03-06T09:08:04.125Z,15.30
2019-03-06T09:10:41.305Z,16.30
2019-03-06T09:13:26.774Z,16.40
2019-03-06T09:16:09.802Z,15.90
2019-03-06T09:18:46.160Z,15.70
2019-03-06T09:21:42.497Z,13.90
2019-03-06T09:24:28.785Z,13.00
2019-03-06T09:27:21.241Z,12.30
2019-03-06T09:29:57.710Z,13.00
2019-03-06T09:32:37.044Z,13.40
2019-03-06T09:35:17.713Z,12.80
2019-03-06T09:37:57.459Z,12.40
2019-03-06T09:40:40.282Z,12.40
2019-03-06T09:43:20.320Z,12.60
2019-03-06T09:46:02.342Z,13.30
2019-03-06T09:48:39.520Z,13.20
2019-03-06T09:51:12.802Z,13.50
2019-03-06T09:53:58.841Z,13.10
2019-03-06T09:56:52.215Z,13.60
2019-03-06T09:59:32.229Z,14.60
2019-03-06T10:02:07.088Z,15.40
2019-03-06T10:04:50.691Z,15.40
2019-03-06T10:07:37.092Z,16.30
2019-03-06T10:10:19.095Z,17.40
2019-03-06T10:12:49.406Z,17.30
2019-03-06T10:15:42.327Z,17.80
2019-03-06T10:18:15.650Z,18.90
2019-03-06T10:20:51.008Z,20.80
2019-03-06T10:23:19.595Z,20.80
2019-03-06T10:25:55.039Z,21.70
2019-03-06T10:28:27.792Z,21.60
2019-03-06T10:31:02.043Z,21.70
2019-03-06T10:33:30.523Z,22.00
2019-03-06T10:35:59.526Z,21.90
2019-03-06T10:38:35.688Z,22.40
2019-03-06T10:41:04.471Z,23.00
2019-03-06T10:43:33.159Z,23.70
2019-03-06T10:46:09.295Z,25.70
2019-03-06T10:48:37.897Z,25.80
2019-03-06T10:51:14.380Z,26.50
2019-03-06T10:53:49.343Z,26.00
2019-03-06T10:56:31.537Z,24.90
2019-03-06T10:59:00.589Z,24.20
2019-03-06T11:01:29.607Z,23.60
2019-03-06T11:04:09.259Z,21.60
2019-03-06T11:06:37.937Z,21.20
2019-03-06T11:09:15.930Z,19.80
2019-03-06T11:11:44.808Z,19.40
2019-03-06T11:14:13.607Z,18.00
2019-03-06T11:16:48.858Z,17.50
2019-03-06T11:19:18.052Z,16.70
2019-03-06T11:21:53.716Z,16.10
2019-03-06T11:24:22.421Z,15.90
2019-03-06T11:26:57.600Z,15.70
2019-03-06T11:29:26.111Z,15.50
2019-03-06T11:31:57.184Z,15.70
2019-03-06T11:34:32.987Z,14.90
2019-03-06T11:37:01.879Z,14.60
2019-03-06T11:39:37.738Z,14.30
2019-03-06T11:42:06.370Z,14.50
2019-03-06T11:44:41.433Z,14.70
2019-03-06T11:47:10.063Z,14.80
2019-03-06T11:49:45.855Z,14.40
2019-03-06T11:52:14.399Z,14.60
2019-03-06T11:55:05.744Z,14.70
2019-03-06T11:57:34.117Z,14.60
2019-03-06T12:00:10.176Z,14.40
2019-03-06T12:02:38.777Z,14.40
2019-03-06T12:05:08.274Z,14.40
2019-03-06T12:07:43.623Z,14.40
2019-03-06T12:10:12.168Z,14.30
2019-03-06T12:12:48.282Z,14.20
2019-03-06T12:15:17.210Z,14.30
2019-03-06T12:17:52.420Z,14.20
2019-03-06T12:20:21.348Z,14.00
2019-03-06T12:22:49.894Z,14.30
2019-03-06T12:25:25.907Z,14.30
2019-03-06T12:27:54.576Z,14.30
2019-03-06T12:30:29.736Z,14.10
2019-03-06T12:32:58.522Z,13.80
2019-03-06T12:35:34.580Z,13.80
2019-03-06T12:38:03.365Z,14.00
2019-03-06T12:40:38.889Z,13.90
2019-03-06T12:43:07.682Z,14.00
2019-03-06T12:45:43.021Z,13.80
2019-03-06T12:48:16.744Z,13.70
2019-03-06T12:50:56.006Z,13.60
2019-03-06T12:53:22.526Z,13.70
2019-03-06T12:56:04.166Z,13.70
2019-03-06T12:58:39.098Z,13.70
2019-03-06T13:01:14.469Z,13.50
2019-03-06T13:03:43.056Z,13.40
2019-03-06T13:06:24.529Z,13.30
2019-03-06T13:08:50.663Z,13.50
2019-03-06T13:11:19.307Z,13.30
2019-03-06T13:13:54.742Z,13.50
2019-03-06T13:16:23.602Z,13.50
2019-03-06T13:18:58.243Z,13.80
2019-03-06T13:21:27.037Z,14.10
2019-03-06T13:24:02.977Z,14.10
2019-03-06T13:26:31.631Z,14.30
2019-03-06T13:29:06.860Z,14.20
2019-03-06T13:31:35.696Z,14.20
2019-03-06T13:34:16.024Z,14.30
2019-03-06T13:36:44.829Z,14.30
2019-03-06T13:39:20.893Z,14.10
2019-03-06T13:41:49.503Z,14.00
2019-03-06T13:44:24.546Z,13.80
2019-03-06T13:46:53.241Z,13.90
2019-03-06T13:49:28.201Z,14.00
2019-03-06T13:51:56.923Z,14.00
2019-03-06T13:54:31.785Z,13.90
2019-03-06T13:57:06.818Z,14.00
2019-03-06T13:59:48.527Z,14.00
2019-03-06T14:02:17.043Z,14.00
2019-03-06T14:04:45.850Z,14.10
2019-03-06T14:07:20.827Z,14.10
2019-03-06T14:09:49.605Z,14.20
2019-03-06T14:12:24.208Z,14.20
2019-03-06T14:14:52.957Z,14.20
2019-03-06T14:17:21.697Z,14.30
2019-03-06T14:19:56.818Z,14.40
2019-03-06T14:22:25.324Z,14.30
2019-03-06T14:25:00.314Z,14.40
2019-03-06T14:27:31.180Z,14.00
2019-03-06T14:30:00.772Z,14.00
2019-03-06T14:32:36.219Z,14.10
2019-03-06T14:35:05.320Z,13.90
2019-03-06T14:37:40.816Z,14.00
2019-03-06T14:40:30.997Z,13.90
2019-03-06T14:43:07.867Z,13.90
2019-03-06T14:45:36.599Z,13.90
2019-03-06T14:48:05.861Z,13.80
2019-03-06T14:50:41.308Z,13.80
2019-03-06T14:53:09.836Z,13.80
2019-03-06T14:55:45.290Z,13.80
2019-03-06T14:58:20.632Z,13.80
2019-03-06T15:01:02.850Z,13.80
2019-03-06T15:03:31.367Z,13.80
2019-03-06T15:06:07.156Z,13.80
2019-03-06T15:08:35.941Z,13.80
2019-03-06T15:11:04.478Z,13.80
2019-03-06T15:13:39.866Z,13.80
2019-03-06T15:16:08.442Z,13.70
2019-03-06T15:18:44.569Z,13.60
2019-03-06T15:21:13.217Z,13.70
2019-03-06T15:23:41.905Z,13.60
2019-03-06T15:26:17.660Z,13.70
2019-03-06T15:28:48.074Z,13.80
2019-03-06T15:31:23.390Z,13.80
2019-03-06T15:33:51.932Z,13.80
2019-03-06T15:36:20.462Z,13.90
2019-03-06T15:38:56.555Z,13.90
2019-03-06T15:41:25.260Z,13.90
2019-03-06T15:44:00.583Z,13.90
2019-03-06T15:46:29.164Z,13.80
2019-03-06T15:49:04.326Z,13.80
2019-03-06T15:51:34.556Z,13.60
2019-03-06T15:54:03.419Z,13.50
2019-03-06T15:56:39.487Z,13.50
2019-03-06T15:59:15.305Z,13.40
2019-03-06T16:01:57.642Z,13.30
2019-03-06T16:04:26.225Z,13.30
2019-03-06T16:06:55.015Z,13.20
2019-03-06T16:09:30.257Z,13.10
2019-03-06T16:11:58.947Z,13.10
2019-03-06T16:14:34.504Z,13.00
2019-03-06T16:17:03.250Z,13.00
2019-03-06T16:19:32.064Z,13.00
2019-03-06T16:22:07.821Z,12.90
2019-03-06T16:24:37.636Z,12.90
2019-03-06T16:27:13.717Z,12.90
2019-03-06T16:29:42.264Z,12.90
2019-03-06T16:32:10.865Z,12.80
2019-03-06T16:34:47.126Z,12.80
2019-03-06T16:37:16.016Z,12.80
2019-03-06T16:39:51.366Z,12.80
2019-03-06T16:42:20.146Z,12.70
2019-03-06T16:44:49.040Z,12.70
2019-03-06T16:47:24.546Z,12.70
2019-03-06T16:49:53.127Z,12.70
2019-03-06T16:52:28.627Z,12.70
2019-03-06T16:54:57.272Z,12.70
2019-03-06T16:57:32.338Z,12.60
2019-03-06T17:00:35.329Z,12.50
2019-03-06T17:03:05.213Z,12.50
2019-03-06T17:05:40.488Z,12.50
2019-03-06T17:08:09.013Z,12.50
2019-03-06T17:10:38.365Z,12.50
2019-03-06T17:13:14.266Z,12.50
2019-03-06T17:15:42.926Z,12.50
2019-03-06T17:18:18.110Z,12.50
2019-03-06T17:20:46.976Z,12.50
2019-03-06T17:23:15.638Z,12.50
2019-03-06T17:25:50.561Z,12.40
2019-03-06T17:28:19.450Z,12.40
2019-03-06T17:30:55.234Z,12.40
2019-03-06T17:33:23.806Z,12.40
2019-03-06T17:35:52.459Z,12.40
2019-03-06T17:38:28.125Z,12.30
2019-03-06T17:40:56.634Z,12.30
2019-03-06T17:43:32.153Z,12.20
2019-03-06T17:46:00.669Z,12.10
2019-03-06T17:48:29.292Z,12.10
2019-03-06T17:51:04.664Z,12.10
2019-03-06T17:53:33.556Z,12.10
2019-03-06T17:56:09.615Z,12.00
2019-03-06T17:58:45.694Z,12.00
2019-03-06T18:01:27.981Z,12.00
2019-03-06T18:03:58.210Z,12.00
2019-03-06T18:06:26.834Z,12.00
2019-03-06T18:09:02.141Z,12.00
2019-03-06T18:11:30.727Z,12.00
2019-03-06T18:14:05.456Z,12.10
2019-03-06T18:16:34.345Z,12.20
2019-03-06T18:19:02.888Z,12.10
2019-03-06T18:21:38.631Z,12.10
2019-03-06T18:24:07.134Z,12.20
2019-03-06T18:26:42.508Z,12.20
2019-03-06T18:29:11.126Z,12.20
2019-03-06T18:31:39.838Z,12.20
2019-03-06T18:34:15.502Z,12.20
2019-03-06T18:36:44.267Z,12.30
2019-03-06T18:39:21.386Z,12.30
2019-03-06T18:41:49.958Z,12.30
2019-03-06T18:44:18.895Z,12.30
2019-03-06T18:46:53.862Z,12.30
2019-03-06T18:49:22.428Z,12.40
2019-03-06T18:51:57.731Z,12.40
2019-03-06T18:54:26.316Z,12.30
2019-03-06T18:56:55.305Z,12.40
2019-03-06T18:59:30.855Z,12.40
2019-03-06T19:02:06.606Z,12.40
2019-03-06T19:04:42.281Z,12.40
2019-03-06T19:07:11.096Z,12.50
2019-03-06T19:09:39.829Z,12.50
2019-03-06T19:12:15.695Z,12.50
2019-03-06T19:14:44.367Z,12.50
2019-03-06T19:17:20.195Z,12.60
2019-03-06T19:19:48.973Z,12.60
2019-03-06T19:22:17.602Z,12.60
2019-03-06T19:24:55.884Z,12.60
2019-03-06T19:27:24.399Z,12.60
2019-03-06T19:30:00.335Z,12.60
2019-03-06T19:32:29.070Z,12.60
2019-03-06T19:34:58.136Z,12.60
2019-03-06T19:37:33.400Z,12.60
2019-03-06T19:40:01.947Z,12.60
2019-03-06T19:42:37.223Z,12.60
2019-03-06T19:45:08.890Z,12.60
2019-03-06T19:47:37.650Z,12.60
2019-03-06T19:50:18.903Z,12.60
2019-03-06T19:52:47.428Z,12.60
2019-03-06T19:55:23.558Z,12.60
2019-03-06T19:58:10.077Z,12.60
2019-03-06T20:00:51.877Z,12.50
2019-03-06T20:03:26.532Z,12.60
2019-03-06T20:06:02.812Z,12.60
2019-03-06T20:08:31.673Z,12.60
2019-03-06T20:11:00.544Z,12.60
2019-03-06T20:13:35.946Z,12.60
2019-03-06T20:16:05.086Z,12.50
2019-03-06T20:18:41.046Z,12.40
2019-03-06T20:21:09.779Z,12.40
2019-03-06T20:23:38.603Z,12.20
2019-03-06T20:26:15.336Z,12.10
2019-03-06T20:28:44.793Z,12.00
2019-03-06T20:31:20.091Z,11.80
2019-03-06T20:33:48.622Z,11.50
2019-03-06T20:36:17.227Z,11.20
2019-03-06T20:38:52.559Z,11.00
2019-03-06T20:41:21.170Z,10.80
2019-03-06T20:43:56.888Z,10.60
2019-03-06T20:46:25.701Z,10.60
2019-03-06T20:48:54.661Z,10.50
2019-03-06T20:51:30.446Z,10.50
2019-03-06T20:53:59.010Z,10.60
2019-03-06T20:56:34.889Z,10.70
2019-03-06T20:59:03.461Z,10.60
2019-03-06T21:01:46.347Z,10.70
2019-03-06T21:04:22.038Z,10.70
2019-03-06T21:06:57.015Z,10.80
2019-03-06T21:09:25.945Z,10.70
2019-03-06T21:12:16.260Z,10.80
2019-03-06T21:14:51.765Z,10.70
2019-03-06T21:17:20.489Z,10.70
2019-03-06T21:19:55.618Z,10.70
2019-03-06T21:22:24.227Z,10.70
2019-03-06T21:24:59.482Z,10.70
2019-03-06T21:27:28.533Z,10.70
2019-03-06T21:29:57.052Z,10.80
2019-03-06T21:32:33.174Z,10.80
2019-03-06T21:35:01.862Z,10.80
2019-03-06T21:37:38.025Z,10.80
2019-03-06T21:40:09.775Z,10.80
2019-03-06T21:42:38.323Z,10.80
2019-03-06T21:45:17.133Z,10.90
2019-03-06T21:47:45.686Z,10.90
2019-03-06T21:50:24.825Z,10.90
2019-03-06T21:52:53.479Z,10.90
2019-03-06T21:55:22.013Z,10.80
2019-03-06T21:57:58.850Z,10.90
2019-03-06T22:00:27.579Z,10.90
2019-03-06T22:03:09.144Z,10.90
2019-03-06T22:05:44.620Z,10.90
2019-03-06T22:08:19.891Z,10.90
2019-03-06T22:10:48.549Z,11.00
2019-03-06T22:13:17.190Z,11.00
2019-03-06T22:15:52.428Z,11.00
2019-03-06T22:18:21.056Z,11.00
2019-03-06T22:21:00.242Z,11.00
2019-03-06T22:23:29.139Z,10.90
2019-03-06T22:25:58.030Z,10.90
2019-03-06T22:28:33.781Z,10.80
2019-03-06T22:31:02.779Z,10.80
2019-03-06T22:33:38.444Z,10.80
2019-03-06T22:36:07.233Z,10.80
2019-03-06T22:38:36.573Z,10.80
2019-03-06T22:41:12.407Z,10.80
2019-03-06T22:43:41.410Z,10.80
2019-03-06T22:46:17.632Z,10.70
2019-03-06T22:48:46.241Z,10.70
2019-03-06T22:51:15.408Z,10.70
2019-03-06T22:53:50.785Z,10.40
2019-03-06T22:56:30.926Z,10.40
2019-03-06T22:59:13.626Z,10.20
2019-03-06T23:01:42.351Z,10.00
2019-03-06T23:04:24.101Z,9.80
2019-03-06T23:06:59.240Z,9.60
2019-03-06T23:09:35.101Z,9.40
2019-03-06T23:12:03.786Z,9.40
2019-03-06T23:14:32.612Z,9.40
2019-03-06T23:17:08.528Z,9.40
2019-03-06T23:19:37.420Z,9.40
2019-03-06T23:22:13.065Z,9.40
2019-03-06T23:24:41.610Z,9.40
2019-03-06T23:27:10.345Z,9.40
2019-03-06T23:29:45.491Z,9.40
2019-03-06T23:32:14.268Z,9.30
2019-03-06T23:34:49.919Z,9.30
2019-03-06T23:37:18.465Z,9.30
2019-03-06T23:39:46.957Z,9.30
2019-03-06T23:42:22.414Z,9.30
2019-03-06T23:44:51.012Z,9.30
2019-03-06T23:47:27.090Z,9.30
2019-03-06T23:49:55.978Z,9.30
2019-03-06T23:52:26.124Z,9.30
2019-03-06T23:55:01.744Z,9.30
2019-03-06T23:57:30.625Z,9.30
